sensor_id;sensor_type;location;lat;lon;timestamp;P1;durP1;ratioP1;P2;durP2;ratioP2
5758;SDS011;2904;48.788;9.196;2022-08-03T00:00:04;6.25;;;3.75;;
5758;SDS011;2904;48.788;9.196;2022-08-03T00:02:30;4.45;;;3.83;;
5758;SDS011;2904;48.788;9.196;2022-08-03T00:04:56;5.90;;;4.10;;
5758;SDS011;2904;48.788;9.196;2022-08-03T00:07:21;8.63;;;4.15;;
5758;SDS011;2904;48.788;9.196;2022-08-03T00:09:47;4.97;;;3.97;;
5758;SDS011;2904;48.788;9.196;2022-08-03T00:12:12;6.75;;;3.92;;
5758;SDS011;2904;48.788;9.196;2022-08-03T00:14:38;6.03;;;3.90;;
5758;SDS011;2904;48.788;9.196;2022-08-03T00:17:04;4.50;;;3.78;;
5758;SDS011;2904;48.788;9.196;2022-08-03T00:19:30;13.70;;;7.97;;
5758;SDS011;2904;48.788;9.196;2022-08-03T00:21:55;6.45;;;4.95;;
5758;SDS011;2904;48.788;9.196;2022-08-03T00:24:21;6.45;;;4.22;;
5758;SDS011;2904;48.788;9.196;2022-08-03T00:26:47;6.40;;;3.90;;
5758;SDS011;2904;48.788;9.196;2022-08-03T00:29:12;7.43;;;4.20;;
5758;SDS011;2904;48.788;9.196;2022-08-03T00:31:38;6.32;;;3.97;;
5758;SDS011;2904;48.788;9.196;2022-08-03T00:34:04;6.37;;;3.83;;
5758;SDS011;2904;48.788;9.196;2022-08-03T00:36:30;9.80;;;4.87;;
5758;SDS011;2904;48.788;9.196;2022-08-03T00:38:55;6.43;;;3.60;;
5758;SDS011;2904;48.788;9.196;2022-08-03T00:41:21;4.40;;;3.85;;
5758;SDS011;2904;48.788;9.196;2022-08-03T00:43:47;4.72;;;4.00;;
5758;SDS011;2904;48.788;9.196;2022-08-03T00:46:12;5.33;;;4.27;;
5758;SDS011;2904;48.788;9.196;2022-08-03T00:48:38;7.28;;;4.47;;
5758;SDS011;2904;48.788;9.196;2022-08-03T00:51:04;6.57;;;4.00;;
5758;SDS011;2904;48.788;9.196;2022-08-03T00:53:30;6.85;;;4.30;;
5758;SDS011;2904;48.788;9.196;2022-08-03T00:55:56;5.10;;;3.97;;
5758;SDS011;2904;48.788;9.196;2022-08-03T00:58:22;6.47;;;4.22;;
5758;SDS011;2904;48.788;9.196;2022-08-03T01:00:48;5.00;;;4.28;;
5758;SDS011;2904;48.788;9.196;2022-08-03T01:03:14;5.32;;;4.43;;
5758;SDS011;2904;48.788;9.196;2022-08-03T01:05:45;4.70;;;4.20;;
5758;SDS011;2904;48.788;9.196;2022-08-03T01:13:55;4.62;;;4.03;;
5758;SDS011;2904;48.788;9.196;2022-08-03T01:16:43;8.27;;;4.30;;
5758;SDS011;2904;48.788;9.196;2022-08-03T01:19:30;4.55;;;3.90;;
5758;SDS011;2904;48.788;9.196;2022-08-03T01:22:56;6.57;;;4.35;;
5758;SDS011;2904;48.788;9.196;2022-08-03T01:26:05;6.68;;;4.28;;
5758;SDS011;2904;48.788;9.196;2022-08-03T01:31:47;4.95;;;3.80;;
5758;SDS011;2904;48.788;9.196;2022-08-03T01:34:27;6.82;;;4.28;;
5758;SDS011;2904;48.788;9.196;2022-08-03T01:36:56;7.32;;;4.03;;
5758;SDS011;2904;48.788;9.196;2022-08-03T01:42:49;5.65;;;4.20;;
5758;SDS011;2904;48.788;9.196;2022-08-03T01:45:16;4.80;;;3.80;;
5758;SDS011;2904;48.788;9.196;2022-08-03T01:47:44;7.60;;;4.47;;
5758;SDS011;2904;48.788;9.196;2022-08-03T01:50:10;6.80;;;4.18;;
5758;SDS011;2904;48.788;9.196;2022-08-03T01:52:38;4.93;;;3.85;;
5758;SDS011;2904;48.788;9.196;2022-08-03T01:55:06;4.62;;;3.97;;
5758;SDS011;2904;48.788;9.196;2022-08-03T01:57:33;6.07;;;4.07;;
5758;SDS011;2904;48.788;9.196;2022-08-03T02:00:01;4.75;;;4.12;;
5758;SDS011;2904;48.788;9.196;2022-08-03T02:02:27;5.85;;;4.20;;
5758;SDS011;2904;48.788;9.196;2022-08-03T02:04:56;4.43;;;4.00;;
5758;SDS011;2904;48.788;9.196;2022-08-03T02:07:24;5.95;;;3.78;;
5758;SDS011;2904;48.788;9.196;2022-08-03T02:09:51;5.30;;;4.40;;
5758;SDS011;2904;48.788;9.196;2022-08-03T02:12:19;5.00;;;4.15;;
5758;SDS011;2904;48.788;9.196;2022-08-03T02:14:48;5.55;;;4.28;;
5758;SDS011;2904;48.788;9.196;2022-08-03T02:17:15;5.32;;;4.20;;
5758;SDS011;2904;48.788;9.196;2022-08-03T02:19:43;5.03;;;4.05;;
5758;SDS011;2904;48.788;9.196;2022-08-03T02:22:10;4.72;;;4.32;;
5758;SDS011;2904;48.788;9.196;2022-08-03T02:24:37;4.70;;;4.05;;
5758;SDS011;2904;48.788;9.196;2022-08-03T02:27:05;4.90;;;4.18;;
5758;SDS011;2904;48.788;9.196;2022-08-03T02:29:36;5.32;;;3.90;;
5758;SDS011;2904;48.788;9.196;2022-08-03T02:32:05;4.62;;;4.03;;
5758;SDS011;2904;48.788;9.196;2022-08-03T02:34:36;4.87;;;4.15;;
5758;SDS011;2904;48.788;9.196;2022-08-03T02:37:04;5.05;;;4.30;;
5758;SDS011;2904;48.788;9.196;2022-08-03T02:39:32;5.82;;;4.57;;
5758;SDS011;2904;48.788;9.196;2022-08-03T02:41:59;7.80;;;4.43;;
5758;SDS011;2904;48.788;9.196;2022-08-03T02:44:29;4.37;;;3.97;;
5758;SDS011;2904;48.788;9.196;2022-08-03T02:46:59;6.55;;;4.47;;
5758;SDS011;2904;48.788;9.196;2022-08-03T02:49:30;4.53;;;3.90;;
5758;SDS011;2904;48.788;9.196;2022-08-03T02:51:56;5.12;;;4.37;;
5758;SDS011;2904;48.788;9.196;2022-08-03T02:54:24;7.97;;;4.30;;
5758;SDS011;2904;48.788;9.196;2022-08-03T02:56:52;4.70;;;4.20;;
5758;SDS011;2904;48.788;9.196;2022-08-03T02:59:21;5.18;;;4.28;;
5758;SDS011;2904;48.788;9.196;2022-08-03T03:01:48;6.68;;;4.35;;
5758;SDS011;2904;48.788;9.196;2022-08-03T03:04:15;7.07;;;4.55;;
5758;SDS011;2904;48.788;9.196;2022-08-03T03:06:42;5.43;;;4.50;;
5758;SDS011;2904;48.788;9.196;2022-08-03T03:09:08;8.18;;;4.80;;
5758;SDS011;2904;48.788;9.196;2022-08-03T03:11:37;5.87;;;4.20;;
5758;SDS011;2904;48.788;9.196;2022-08-03T03:14:03;8.77;;;4.82;;
5758;SDS011;2904;48.788;9.196;2022-08-03T03:16:30;5.95;;;4.50;;
5758;SDS011;2904;48.788;9.196;2022-08-03T03:18:56;6.03;;;4.85;;
5758;SDS011;2904;48.788;9.196;2022-08-03T03:21:23;6.78;;;4.50;;
5758;SDS011;2904;48.788;9.196;2022-08-03T03:23:50;4.53;;;4.12;;
5758;SDS011;2904;48.788;9.196;2022-08-03T03:26:17;5.45;;;4.18;;
5758;SDS011;2904;48.788;9.196;2022-08-03T03:28:43;5.90;;;4.45;;
5758;SDS011;2904;48.788;9.196;2022-08-03T03:31:09;6.87;;;4.75;;
5758;SDS011;2904;48.788;9.196;2022-08-03T03:33:36;6.03;;;4.60;;
5758;SDS011;2904;48.788;9.196;2022-08-03T03:36:02;7.85;;;4.28;;
5758;SDS011;2904;48.788;9.196;2022-08-03T03:38:30;6.68;;;4.70;;
5758;SDS011;2904;48.788;9.196;2022-08-03T03:40:57;6.45;;;4.70;;
5758;SDS011;2904;48.788;9.196;2022-08-03T03:43:23;5.35;;;4.55;;
5758;SDS011;2904;48.788;9.196;2022-08-03T03:45:49;5.35;;;4.85;;
5758;SDS011;2904;48.788;9.196;2022-08-03T03:48:17;9.07;;;5.85;;
5758;SDS011;2904;48.788;9.196;2022-08-03T03:50:44;6.35;;;4.25;;
5758;SDS011;2904;48.788;9.196;2022-08-03T03:53:11;7.28;;;4.50;;
5758;SDS011;2904;48.788;9.196;2022-08-03T03:55:38;8.00;;;4.70;;
5758;SDS011;2904;48.788;9.196;2022-08-03T03:58:05;10.00;;;4.82;;
5758;SDS011;2904;48.788;9.196;2022-08-03T04:00:36;7.68;;;4.90;;
5758;SDS011;2904;48.788;9.196;2022-08-03T04:03:02;6.37;;;4.87;;
5758;SDS011;2904;48.788;9.196;2022-08-03T04:05:27;4.85;;;4.35;;
5758;SDS011;2904;48.788;9.196;2022-08-03T04:08:13;6.60;;;4.35;;
5758;SDS011;2904;48.788;9.196;2022-08-03T04:11:06;4.53;;;4.00;;
5758;SDS011;2904;48.788;9.196;2022-08-03T04:13:41;4.68;;;4.12;;
5758;SDS011;2904;48.788;9.196;2022-08-03T04:16:13;5.72;;;4.40;;
5758;SDS011;2904;48.788;9.196;2022-08-03T04:18:43;7.10;;;4.43;;
5758;SDS011;2904;48.788;9.196;2022-08-03T04:21:13;7.32;;;4.55;;
5758;SDS011;2904;48.788;9.196;2022-08-03T04:23:43;6.20;;;4.30;;
5758;SDS011;2904;48.788;9.196;2022-08-03T04:26:13;5.45;;;4.30;;
5758;SDS011;2904;48.788;9.196;2022-08-03T04:28:42;5.28;;;4.70;;
5758;SDS011;2904;48.788;9.196;2022-08-03T04:31:10;7.10;;;4.97;;
5758;SDS011;2904;48.788;9.196;2022-08-03T04:33:38;6.22;;;4.18;;
5758;SDS011;2904;48.788;9.196;2022-08-03T04:36:06;7.32;;;4.57;;
5758;SDS011;2904;48.788;9.196;2022-08-03T04:38:35;5.07;;;4.43;;
5758;SDS011;2904;48.788;9.196;2022-08-03T04:41:04;6.12;;;4.57;;
5758;SDS011;2904;48.788;9.196;2022-08-03T04:43:31;7.30;;;4.47;;
5758;SDS011;2904;48.788;9.196;2022-08-03T04:45:58;7.85;;;4.70;;
5758;SDS011;2904;48.788;9.196;2022-08-03T04:48:25;7.53;;;4.30;;
5758;SDS011;2904;48.788;9.196;2022-08-03T04:50:51;5.40;;;4.45;;
5758;SDS011;2904;48.788;9.196;2022-08-03T04:53:18;7.00;;;4.60;;
5758;SDS011;2904;48.788;9.196;2022-08-03T04:55:45;12.27;;;4.90;;
5758;SDS011;2904;48.788;9.196;2022-08-03T04:58:10;7.03;;;4.40;;
5758;SDS011;2904;48.788;9.196;2022-08-03T05:00:36;6.93;;;4.97;;
5758;SDS011;2904;48.788;9.196;2022-08-03T05:03:02;6.35;;;4.60;;
5758;SDS011;2904;48.788;9.196;2022-08-03T05:05:28;6.30;;;5.10;;
5758;SDS011;2904;48.788;9.196;2022-08-03T05:07:53;9.48;;;4.80;;
5758;SDS011;2904;48.788;9.196;2022-08-03T05:10:20;5.45;;;4.40;;
5758;SDS011;2904;48.788;9.196;2022-08-03T05:12:46;6.75;;;5.03;;
5758;SDS011;2904;48.788;9.196;2022-08-03T05:15:12;6.57;;;4.87;;
5758;SDS011;2904;48.788;9.196;2022-08-03T05:17:39;7.40;;;5.20;;
5758;SDS011;2904;48.788;9.196;2022-08-03T05:20:05;5.72;;;4.68;;
5758;SDS011;2904;48.788;9.196;2022-08-03T05:22:31;6.85;;;4.40;;
5758;SDS011;2904;48.788;9.196;2022-08-03T05:24:57;5.47;;;4.70;;
5758;SDS011;2904;48.788;9.196;2022-08-03T05:27:23;8.82;;;4.82;;
5758;SDS011;2904;48.788;9.196;2022-08-03T05:29:49;5.57;;;4.70;;
5758;SDS011;2904;48.788;9.196;2022-08-03T05:32:15;8.45;;;4.80;;
5758;SDS011;2904;48.788;9.196;2022-08-03T05:34:42;6.45;;;4.80;;
5758;SDS011;2904;48.788;9.196;2022-08-03T05:37:08;4.70;;;4.30;;
5758;SDS011;2904;48.788;9.196;2022-08-03T05:39:33;6.70;;;5.20;;
5758;SDS011;2904;48.788;9.196;2022-08-03T05:41:59;6.10;;;4.72;;
5758;SDS011;2904;48.788;9.196;2022-08-03T05:44:26;7.00;;;4.62;;
5758;SDS011;2904;48.788;9.196;2022-08-03T05:46:51;7.82;;;4.68;;
5758;SDS011;2904;48.788;9.196;2022-08-03T05:49:17;5.65;;;4.90;;
5758;SDS011;2904;48.788;9.196;2022-08-03T05:51:43;5.80;;;4.80;;
5758;SDS011;2904;48.788;9.196;2022-08-03T05:54:09;6.15;;;4.87;;
5758;SDS011;2904;48.788;9.196;2022-08-03T05:56:34;9.13;;;4.90;;
5758;SDS011;2904;48.788;9.196;2022-08-03T05:59:00;5.45;;;4.40;;
5758;SDS011;2904;48.788;9.196;2022-08-03T06:01:26;5.53;;;4.62;;
5758;SDS011;2904;48.788;9.196;2022-08-03T06:03:52;4.95;;;4.45;;
5758;SDS011;2904;48.788;9.196;2022-08-03T06:06:18;5.65;;;4.20;;
5758;SDS011;2904;48.788;9.196;2022-08-03T06:08:44;7.32;;;4.80;;
5758;SDS011;2904;48.788;9.196;2022-08-03T06:11:10;6.65;;;5.10;;
5758;SDS011;2904;48.788;9.196;2022-08-03T06:13:36;10.80;;;5.35;;
5758;SDS011;2904;48.788;9.196;2022-08-03T06:16:03;10.65;;;5.10;;
5758;SDS011;2904;48.788;9.196;2022-08-03T06:18:29;8.57;;;5.20;;
5758;SDS011;2904;48.788;9.196;2022-08-03T06:20:55;7.87;;;4.85;;
5758;SDS011;2904;48.788;9.196;2022-08-03T06:23:21;6.68;;;4.78;;
5758;SDS011;2904;48.788;9.196;2022-08-03T06:25:47;6.15;;;4.55;;
5758;SDS011;2904;48.788;9.196;2022-08-03T06:28:13;9.93;;;5.10;;
5758;SDS011;2904;48.788;9.196;2022-08-03T06:30:39;5.57;;;4.45;;
5758;SDS011;2904;48.788;9.196;2022-08-03T06:33:05;5.65;;;4.30;;
5758;SDS011;2904;48.788;9.196;2022-08-03T06:35:32;7.12;;;4.50;;
5758;SDS011;2904;48.788;9.196;2022-08-03T06:37:58;6.47;;;4.93;;
5758;SDS011;2904;48.788;9.196;2022-08-03T06:40:23;6.78;;;4.35;;
5758;SDS011;2904;48.788;9.196;2022-08-03T06:42:59;8.88;;;4.80;;
5758;SDS011;2904;48.788;9.196;2022-08-03T06:45:26;7.05;;;4.60;;
5758;SDS011;2904;48.788;9.196;2022-08-03T06:48:02;5.65;;;4.40;;
5758;SDS011;2904;48.788;9.196;2022-08-03T06:50:30;7.32;;;4.47;;
5758;SDS011;2904;48.788;9.196;2022-08-03T06:52:57;6.95;;;4.75;;
5758;SDS011;2904;48.788;9.196;2022-08-03T06:55:23;8.32;;;4.90;;
5758;SDS011;2904;48.788;9.196;2022-08-03T06:57:49;8.25;;;4.30;;
5758;SDS011;2904;48.788;9.196;2022-08-03T07:00:14;6.62;;;4.65;;
5758;SDS011;2904;48.788;9.196;2022-08-03T07:02:40;9.43;;;4.95;;
5758;SDS011;2904;48.788;9.196;2022-08-03T07:05:06;7.82;;;4.72;;
5758;SDS011;2904;48.788;9.196;2022-08-03T07:07:33;7.50;;;4.50;;
5758;SDS011;2904;48.788;9.196;2022-08-03T07:09:59;8.25;;;4.62;;
5758;SDS011;2904;48.788;9.196;2022-08-03T07:12:26;9.98;;;4.55;;
5758;SDS011;2904;48.788;9.196;2022-08-03T07:14:52;5.93;;;4.28;;
5758;SDS011;2904;48.788;9.196;2022-08-03T07:17:19;8.05;;;4.72;;
5758;SDS011;2904;48.788;9.196;2022-08-03T07:19:44;6.47;;;4.55;;
5758;SDS011;2904;48.788;9.196;2022-08-03T07:22:10;6.00;;;4.55;;
5758;SDS011;2904;48.788;9.196;2022-08-03T07:24:36;5.93;;;4.15;;
5758;SDS011;2904;48.788;9.196;2022-08-03T07:27:02;6.12;;;4.28;;
5758;SDS011;2904;48.788;9.196;2022-08-03T07:29:28;7.50;;;4.60;;
5758;SDS011;2904;48.788;9.196;2022-08-03T07:31:54;9.48;;;4.10;;
5758;SDS011;2904;48.788;9.196;2022-08-03T07:34:20;10.27;;;4.50;;
5758;SDS011;2904;48.788;9.196;2022-08-03T07:36:45;9.25;;;4.18;;
5758;SDS011;2904;48.788;9.196;2022-08-03T07:39:11;10.15;;;4.53;;
5758;SDS011;2904;48.788;9.196;2022-08-03T07:41:37;11.27;;;4.10;;
5758;SDS011;2904;48.788;9.196;2022-08-03T07:44:03;7.50;;;4.30;;
5758;SDS011;2904;48.788;9.196;2022-08-03T07:46:29;6.43;;;4.25;;
5758;SDS011;2904;48.788;9.196;2022-08-03T07:48:54;9.68;;;4.32;;
5758;SDS011;2904;48.788;9.196;2022-08-03T07:51:20;5.40;;;4.07;;
5758;SDS011;2904;48.788;9.196;2022-08-03T07:53:46;9.25;;;4.07;;
5758;SDS011;2904;48.788;9.196;2022-08-03T07:56:12;7.10;;;3.78;;
5758;SDS011;2904;48.788;9.196;2022-08-03T07:58:37;6.85;;;4.03;;
5758;SDS011;2904;48.788;9.196;2022-08-03T08:01:03;5.07;;;4.05;;
5758;SDS011;2904;48.788;9.196;2022-08-03T08:03:28;5.15;;;4.00;;
5758;SDS011;2904;48.788;9.196;2022-08-03T08:05:54;6.75;;;4.18;;
5758;SDS011;2904;48.788;9.196;2022-08-03T08:08:20;6.90;;;3.78;;
5758;SDS011;2904;48.788;9.196;2022-08-03T08:10:46;4.85;;;3.87;;
5758;SDS011;2904;48.788;9.196;2022-08-03T08:13:12;7.78;;;4.20;;
5758;SDS011;2904;48.788;9.196;2022-08-03T08:15:38;12.60;;;4.22;;
5758;SDS011;2904;48.788;9.196;2022-08-03T08:18:04;6.37;;;3.83;;
5758;SDS011;2904;48.788;9.196;2022-08-03T08:20:31;5.65;;;3.53;;
5758;SDS011;2904;48.788;9.196;2022-08-03T08:22:59;5.47;;;3.25;;
5758;SDS011;2904;48.788;9.196;2022-08-03T08:25:26;8.35;;;3.45;;
5758;SDS011;2904;48.788;9.196;2022-08-03T08:27:52;7.07;;;3.47;;
5758;SDS011;2904;48.788;9.196;2022-08-03T08:30:18;3.97;;;3.47;;
5758;SDS011;2904;48.788;9.196;2022-08-03T08:32:46;4.35;;;3.12;;
5758;SDS011;2904;48.788;9.196;2022-08-03T08:35:13;3.70;;;2.90;;
5758;SDS011;2904;48.788;9.196;2022-08-03T08:37:39;6.03;;;2.90;;
5758;SDS011;2904;48.788;9.196;2022-08-03T08:40:05;5.70;;;2.95;;
5758;SDS011;2904;48.788;9.196;2022-08-03T08:42:32;3.85;;;2.80;;
5758;SDS011;2904;48.788;9.196;2022-08-03T08:45:01;11.77;;;2.83;;
5758;SDS011;2904;48.788;9.196;2022-08-03T08:47:29;5.55;;;2.65;;
5758;SDS011;2904;48.788;9.196;2022-08-03T08:49:57;8.65;;;2.58;;
5758;SDS011;2904;48.788;9.196;2022-08-03T08:52:24;5.45;;;2.60;;
5758;SDS011;2904;48.788;9.196;2022-08-03T08:54:57;3.28;;;2.25;;
5758;SDS011;2904;48.788;9.196;2022-08-03T08:57:25;2.40;;;2.08;;
5758;SDS011;2904;48.788;9.196;2022-08-03T08:59:54;3.47;;;2.00;;
5758;SDS011;2904;48.788;9.196;2022-08-03T09:02:24;6.75;;;2.20;;
5758;SDS011;2904;48.788;9.196;2022-08-03T09:04:53;6.00;;;2.50;;
5758;SDS011;2904;48.788;9.196;2022-08-03T09:07:19;2.40;;;2.20;;
5758;SDS011;2904;48.788;9.196;2022-08-03T09:09:46;2.78;;;2.05;;
5758;SDS011;2904;48.788;9.196;2022-08-03T09:12:12;3.42;;;2.08;;
5758;SDS011;2904;48.788;9.196;2022-08-03T09:14:38;3.17;;;2.00;;
5758;SDS011;2904;48.788;9.196;2022-08-03T09:17:04;3.00;;;2.10;;
5758;SDS011;2904;48.788;9.196;2022-08-03T09:19:31;4.37;;;2.47;;
5758;SDS011;2904;48.788;9.196;2022-08-03T09:22:11;3.22;;;2.17;;
5758;SDS011;2904;48.788;9.196;2022-08-03T09:24:55;4.28;;;2.10;;
5758;SDS011;2904;48.788;9.196;2022-08-03T09:27:21;6.50;;;2.30;;
5758;SDS011;2904;48.788;9.196;2022-08-03T09:29:51;2.17;;;1.80;;
5758;SDS011;2904;48.788;9.196;2022-08-03T09:32:22;4.28;;;2.10;;
5758;SDS011;2904;48.788;9.196;2022-08-03T09:34:49;2.90;;;2.08;;
5758;SDS011;2904;48.788;9.196;2022-08-03T09:37:17;3.17;;;2.12;;
5758;SDS011;2904;48.788;9.196;2022-08-03T09:39:45;4.68;;;2.00;;
5758;SDS011;2904;48.788;9.196;2022-08-03T09:42:17;2.90;;;2.03;;
5758;SDS011;2904;48.788;9.196;2022-08-03T09:44:47;5.70;;;2.17;;
5758;SDS011;2904;48.788;9.196;2022-08-03T09:47:16;2.95;;;2.10;;
5758;SDS011;2904;48.788;9.196;2022-08-03T09:49:59;2.33;;;1.62;;
5758;SDS011;2904;48.788;9.196;2022-08-03T09:52:30;2.47;;;1.80;;
5758;SDS011;2904;48.788;9.196;2022-08-03T09:55:01;3.78;;;1.92;;
5758;SDS011;2904;48.788;9.196;2022-08-03T09:57:34;5.10;;;2.10;;
5758;SDS011;2904;48.788;9.196;2022-08-03T10:00:10;2.00;;;1.70;;
5758;SDS011;2904;48.788;9.196;2022-08-03T10:02:38;1.83;;;1.50;;
5758;SDS011;2904;48.788;9.196;2022-08-03T10:05:05;2.08;;;1.67;;
5758;SDS011;2904;48.788;9.196;2022-08-03T10:07:48;1.98;;;1.77;;
5758;SDS011;2904;48.788;9.196;2022-08-03T10:10:14;1.95;;;1.50;;
5758;SDS011;2904;48.788;9.196;2022-08-03T10:12:41;1.60;;;1.50;;
5758;SDS011;2904;48.788;9.196;2022-08-03T10:15:08;1.77;;;1.48;;
5758;SDS011;2904;48.788;9.196;2022-08-03T10:17:34;7.07;;;1.73;;
5758;SDS011;2904;48.788;9.196;2022-08-03T10:20:00;2.10;;;1.65;;
5758;SDS011;2904;48.788;9.196;2022-08-03T10:22:31;3.17;;;1.60;;
5758;SDS011;2904;48.788;9.196;2022-08-03T10:24:59;5.70;;;2.00;;
5758;SDS011;2904;48.788;9.196;2022-08-03T10:27:31;3.25;;;1.73;;
5758;SDS011;2904;48.788;9.196;2022-08-03T10:30:08;1.90;;;1.80;;
5758;SDS011;2904;48.788;9.196;2022-08-03T10:32:42;3.42;;;1.80;;
5758;SDS011;2904;48.788;9.196;2022-08-03T10:35:13;2.35;;;1.70;;
5758;SDS011;2904;48.788;9.196;2022-08-03T10:37:44;2.30;;;1.87;;
5758;SDS011;2904;48.788;9.196;2022-08-03T10:40:22;4.62;;;1.60;;
5758;SDS011;2904;48.788;9.196;2022-08-03T10:42:50;3.33;;;2.90;;
5758;SDS011;2904;48.788;9.196;2022-08-03T10:45:23;2.03;;;1.77;;
5758;SDS011;2904;48.788;9.196;2022-08-03T10:47:50;1.95;;;1.65;;
5758;SDS011;2904;48.788;9.196;2022-08-03T10:50:20;2.95;;;1.60;;
5758;SDS011;2904;48.788;9.196;2022-08-03T10:52:55;2.28;;;2.08;;
5758;SDS011;2904;48.788;9.196;2022-08-03T10:55:28;2.72;;;1.70;;
5758;SDS011;2904;48.788;9.196;2022-08-03T11:04:19;1.95;;;1.77;;
5758;SDS011;2904;48.788;9.196;2022-08-03T11:06:45;4.35;;;2.22;;
5758;SDS011;2904;48.788;9.196;2022-08-03T11:09:15;2.22;;;1.85;;
5758;SDS011;2904;48.788;9.196;2022-08-03T11:11:43;1.90;;;1.70;;
5758;SDS011;2904;48.788;9.196;2022-08-03T11:14:10;3.83;;;1.70;;
5758;SDS011;2904;48.788;9.196;2022-08-03T11:16:42;2.22;;;1.75;;
5758;SDS011;2904;48.788;9.196;2022-08-03T11:19:11;4.03;;;1.95;;
5758;SDS011;2904;48.788;9.196;2022-08-03T11:21:51;4.35;;;1.75;;
5758;SDS011;2904;48.788;9.196;2022-08-03T11:37:19;3.78;;;2.47;;
5758;SDS011;2904;48.788;9.196;2022-08-03T11:39:47;2.25;;;1.80;;
5758;SDS011;2904;48.788;9.196;2022-08-03T11:45:13;3.25;;;2.30;;
5758;SDS011;2904;48.788;9.196;2022-08-03T11:47:40;3.22;;;1.77;;
5758;SDS011;2904;48.788;9.196;2022-08-03T11:52:36;3.30;;;1.77;;
5758;SDS011;2904;48.788;9.196;2022-08-03T11:55:08;2.10;;;1.85;;
5758;SDS011;2904;48.788;9.196;2022-08-03T11:57:35;2.28;;;2.00;;
5758;SDS011;2904;48.788;9.196;2022-08-03T12:00:01;4.30;;;2.00;;
5758;SDS011;2904;48.788;9.196;2022-08-03T12:02:52;4.65;;;2.20;;
5758;SDS011;2904;48.788;9.196;2022-08-03T12:05:39;2.03;;;1.83;;
5758;SDS011;2904;48.788;9.196;2022-08-03T12:08:07;3.85;;;1.90;;
5758;SDS011;2904;48.788;9.196;2022-08-03T12:10:35;2.10;;;1.60;;
5758;SDS011;2904;48.788;9.196;2022-08-03T12:13:02;2.20;;;2.00;;
5758;SDS011;2904;48.788;9.196;2022-08-03T12:15:33;3.62;;;2.00;;
5758;SDS011;2904;48.788;9.196;2022-08-03T12:18:01;2.95;;;1.90;;
5758;SDS011;2904;48.788;9.196;2022-08-03T12:20:29;3.25;;;2.00;;
5758;SDS011;2904;48.788;9.196;2022-08-03T12:23:01;2.42;;;2.10;;
5758;SDS011;2904;48.788;9.196;2022-08-03T12:25:28;1.90;;;1.80;;
5758;SDS011;2904;48.788;9.196;2022-08-03T12:28:04;2.50;;;1.65;;
5758;SDS011;2904;48.788;9.196;2022-08-03T12:30:51;1.87;;;1.77;;
5758;SDS011;2904;48.788;9.196;2022-08-03T12:33:21;2.00;;;1.80;;
5758;SDS011;2904;48.788;9.196;2022-08-03T12:36:08;1.90;;;1.80;;
5758;SDS011;2904;48.788;9.196;2022-08-03T12:38:36;1.90;;;1.80;;
5758;SDS011;2904;48.788;9.196;2022-08-03T12:41:06;3.10;;;1.70;;
5758;SDS011;2904;48.788;9.196;2022-08-03T12:43:47;1.92;;;1.80;;
5758;SDS011;2904;48.788;9.196;2022-08-03T12:46:14;2.42;;;1.90;;
5758;SDS011;2904;48.788;9.196;2022-08-03T12:54:36;2.85;;;2.05;;
5758;SDS011;2904;48.788;9.196;2022-08-03T12:57:11;2.22;;;2.03;;
5758;SDS011;2904;48.788;9.196;2022-08-03T12:59:38;4.35;;;1.80;;
5758;SDS011;2904;48.788;9.196;2022-08-03T13:02:17;4.82;;;2.85;;
5758;SDS011;2904;48.788;9.196;2022-08-03T13:04:45;2.75;;;2.17;;
5758;SDS011;2904;48.788;9.196;2022-08-03T13:07:11;1.70;;;1.60;;
5758;SDS011;2904;48.788;9.196;2022-08-03T13:09:42;1.83;;;1.70;;
5758;SDS011;2904;48.788;9.196;2022-08-03T13:12:13;4.53;;;2.20;;
5758;SDS011;2904;48.788;9.196;2022-08-03T13:14:44;2.95;;;2.10;;
5758;SDS011;2904;48.788;9.196;2022-08-03T13:17:12;3.40;;;3.00;;
5758;SDS011;2904;48.788;9.196;2022-08-03T13:19:38;2.55;;;2.35;;
5758;SDS011;2904;48.788;9.196;2022-08-03T13:22:13;2.00;;;1.90;;
5758;SDS011;2904;48.788;9.196;2022-08-03T13:24:45;2.00;;;1.80;;
5758;SDS011;2904;48.788;9.196;2022-08-03T13:27:12;5.10;;;2.28;;
5758;SDS011;2904;48.788;9.196;2022-08-03T13:29:38;4.47;;;2.15;;
5758;SDS011;2904;48.788;9.196;2022-08-03T13:32:06;4.10;;;1.80;;
5758;SDS011;2904;48.788;9.196;2022-08-03T13:34:32;2.35;;;1.80;;
5758;SDS011;2904;48.788;9.196;2022-08-03T13:36:57;2.65;;;1.95;;
5758;SDS011;2904;48.788;9.196;2022-08-03T13:39:23;5.10;;;3.72;;
5758;SDS011;2904;48.788;9.196;2022-08-03T13:41:49;5.95;;;2.05;;
5758;SDS011;2904;48.788;9.196;2022-08-03T13:44:15;4.97;;;4.18;;
5758;SDS011;2904;48.788;9.196;2022-08-03T13:46:40;2.33;;;2.12;;
5758;SDS011;2904;48.788;9.196;2022-08-03T13:49:06;1.95;;;1.85;;
5758;SDS011;2904;48.788;9.196;2022-08-03T13:51:32;3.55;;;1.80;;
5758;SDS011;2904;48.788;9.196;2022-08-03T13:53:58;5.62;;;1.80;;
5758;SDS011;2904;48.788;9.196;2022-08-03T13:56:27;1.95;;;1.85;;
5758;SDS011;2904;48.788;9.196;2022-08-03T13:58:54;2.60;;;1.80;;
5758;SDS011;2904;48.788;9.196;2022-08-03T14:01:20;3.65;;;2.15;;
5758;SDS011;2904;48.788;9.196;2022-08-03T14:03:46;3.03;;;2.20;;
5758;SDS011;2904;48.788;9.196;2022-08-03T14:06:18;2.33;;;2.12;;
5758;SDS011;2904;48.788;9.196;2022-08-03T14:08:44;2.22;;;2.03;;
5758;SDS011;2904;48.788;9.196;2022-08-03T14:11:10;7.30;;;3.08;;
5758;SDS011;2904;48.788;9.196;2022-08-03T14:13:36;2.83;;;2.53;;
5758;SDS011;2904;48.788;9.196;2022-08-03T14:16:02;1.95;;;1.85;;
5758;SDS011;2904;48.788;9.196;2022-08-03T14:18:27;1.98;;;1.87;;
5758;SDS011;2904;48.788;9.196;2022-08-03T14:20:53;1.92;;;1.83;;
5758;SDS011;2904;48.788;9.196;2022-08-03T14:23:19;6.35;;;4.05;;
5758;SDS011;2904;48.788;9.196;2022-08-03T14:25:45;2.65;;;1.92;;
5758;SDS011;2904;48.788;9.196;2022-08-03T14:28:11;3.03;;;1.70;;
5758;SDS011;2904;48.788;9.196;2022-08-03T14:30:37;3.70;;;1.48;;
5758;SDS011;2904;48.788;9.196;2022-08-03T14:33:03;3.25;;;1.75;;
5758;SDS011;2904;48.788;9.196;2022-08-03T14:35:28;1.80;;;1.50;;
5758;SDS011;2904;48.788;9.196;2022-08-03T14:37:54;2.33;;;1.80;;
5758;SDS011;2904;48.788;9.196;2022-08-03T14:40:20;4.05;;;1.85;;
5758;SDS011;2904;48.788;9.196;2022-08-03T14:42:46;3.35;;;1.77;;
5758;SDS011;2904;48.788;9.196;2022-08-03T14:45:13;1.77;;;1.67;;
5758;SDS011;2904;48.788;9.196;2022-08-03T14:47:39;4.05;;;1.80;;
5758;SDS011;2904;48.788;9.196;2022-08-03T14:50:05;1.80;;;1.70;;
5758;SDS011;2904;48.788;9.196;2022-08-03T14:52:32;2.33;;;1.60;;
5758;SDS011;2904;48.788;9.196;2022-08-03T14:55:00;2.55;;;1.70;;
5758;SDS011;2904;48.788;9.196;2022-08-03T14:57:26;1.87;;;1.62;;
5758;SDS011;2904;48.788;9.196;2022-08-03T14:59:52;2.75;;;1.60;;
5758;SDS011;2904;48.788;9.196;2022-08-03T15:02:18;4.60;;;1.90;;
5758;SDS011;2904;48.788;9.196;2022-08-03T15:04:43;6.40;;;1.90;;
5758;SDS011;2904;48.788;9.196;2022-08-03T15:07:10;1.80;;;1.70;;
5758;SDS011;2904;48.788;9.196;2022-08-03T15:09:36;1.60;;;1.50;;
5758;SDS011;2904;48.788;9.196;2022-08-03T15:12:02;2.33;;;1.70;;
5758;SDS011;2904;48.788;9.196;2022-08-03T15:14:31;4.50;;;1.60;;
5758;SDS011;2904;48.788;9.196;2022-08-03T15:16:57;4.20;;;1.62;;
5758;SDS011;2904;48.788;9.196;2022-08-03T15:19:23;4.70;;;1.67;;
5758;SDS011;2904;48.788;9.196;2022-08-03T15:21:49;2.40;;;1.70;;
5758;SDS011;2904;48.788;9.196;2022-08-03T15:24:14;2.37;;;1.60;;
5758;SDS011;2904;48.788;9.196;2022-08-03T15:26:40;3.47;;;1.75;;
5758;SDS011;2904;48.788;9.196;2022-08-03T15:29:06;2.08;;;1.75;;
5758;SDS011;2904;48.788;9.196;2022-08-03T15:31:32;2.08;;;1.58;;
5758;SDS011;2904;48.788;9.196;2022-08-03T15:33:58;5.53;;;1.83;;
5758;SDS011;2904;48.788;9.196;2022-08-03T15:36:25;2.53;;;1.80;;
5758;SDS011;2904;48.788;9.196;2022-08-03T15:38:51;4.12;;;3.55;;
5758;SDS011;2904;48.788;9.196;2022-08-03T15:41:17;3.53;;;1.92;;
5758;SDS011;2904;48.788;9.196;2022-08-03T15:43:43;2.00;;;1.90;;
5758;SDS011;2904;48.788;9.196;2022-08-03T15:46:10;2.42;;;1.67;;
5758;SDS011;2904;48.788;9.196;2022-08-03T15:48:38;5.78;;;1.92;;
5758;SDS011;2904;48.788;9.196;2022-08-03T15:51:04;4.82;;;1.70;;
5758;SDS011;2904;48.788;9.196;2022-08-03T15:53:31;2.92;;;1.80;;
5758;SDS011;2904;48.788;9.196;2022-08-03T15:55:57;2.08;;;1.75;;
5758;SDS011;2904;48.788;9.196;2022-08-03T15:58:23;1.90;;;1.80;;
5758;SDS011;2904;48.788;9.196;2022-08-03T16:00:53;4.72;;;1.80;;
5758;SDS011;2904;48.788;9.196;2022-08-03T16:03:23;3.80;;;1.60;;